createdAt,value
2017-12-23T00:00:18.375Z,48.85
2017-12-23T00:01:20.896Z,56.97
2017-12-23T00:02:23.481Z,60.75
2017-12-23T00:03:25.989Z,63.78
2017-12-23T00:04:28.465Z,54.17
2017-12-23T00:05:30.952Z,72.15
2017-12-23T00:06:33.432Z,80.43
2017-12-23T00:07:35.914Z,73.55
2017-12-23T00:08:38.500Z,71.45
2017-12-23T00:09:41.071Z,81.07
2017-12-23T00:10:43.576Z,79.82
2017-12-23T00:11:46.120Z,63.85
2017-12-23T00:12:48.640Z,64.53
2017-12-23T00:13:51.160Z,73.78
2017-12-23T00:14:53.663Z,65.93
2017-12-23T00:15:56.214Z,62.25
2017-12-23T00:16:58.670Z,66.37
2017-12-23T00:18:01.130Z,71.20
2017-12-23T00:19:03.658Z,78.25
2017-12-23T00:20:06.150Z,83.18
2017-12-23T00:21:08.713Z,81.68
2017-12-23T00:22:11.202Z,77.93
2017-12-23T00:23:13.706Z,68.72
2017-12-23T00:24:16.235Z,70.95
2017-12-23T00:25:18.710Z,68.97
2017-12-23T00:26:21.234Z,90.32
2017-12-23T00:27:23.720Z,87.93
2017-12-23T00:28:26.219Z,92.18
2017-12-23T00:29:28.742Z,89.72
2017-12-23T00:30:31.231Z,90.75
2017-12-23T00:31:33.731Z,80.15
2017-12-23T00:32:36.233Z,97.60
2017-12-23T00:33:38.709Z,93.70
2017-12-23T00:34:41.204Z,85.18
2017-12-23T00:35:43.693Z,73.43
2017-12-23T00:36:46.183Z,98.05
2017-12-23T00:37:48.670Z,98.87
2017-12-23T00:38:51.312Z,94.85
2017-12-23T00:39:53.832Z,90.72
2017-12-23T00:40:56.384Z,99.22
2017-12-23T00:41:58.904Z,91.90
2017-12-23T00:43:01.560Z,86.03
2017-12-23T00:44:04.081Z,92.75
2017-12-23T00:45:06.563Z,94.40
2017-12-23T00:46:09.034Z,92.35
2017-12-23T00:47:11.565Z,92.37
2017-12-23T00:48:14.038Z,81.57
2017-12-23T00:49:16.563Z,89.10
2017-12-23T00:50:19.077Z,80.00
2017-12-23T00:51:21.562Z,79.55
2017-12-23T00:52:24.078Z,91.37
2017-12-23T00:53:26.558Z,81.22
2017-12-23T00:54:29.034Z,85.90
2017-12-23T00:55:31.541Z,77.80
2017-12-23T00:56:34.025Z,79.93
2017-12-23T00:57:36.539Z,86.28
2017-12-23T00:58:39.132Z,95.43
2017-12-23T00:59:41.622Z,86.00
2017-12-23T01:00:44.122Z,90.07
2017-12-23T01:01:46.683Z,94.18
2017-12-23T01:02:49.209Z,89.18
2017-12-23T01:03:51.744Z,95.57
2017-12-23T01:04:54.364Z,80.12
2017-12-23T01:05:56.964Z,81.15
2017-12-23T01:06:59.529Z,83.07
2017-12-23T01:08:02.000Z,87.70
2017-12-23T01:09:04.479Z,96.18
2017-12-23T01:10:06.956Z,88.40
2017-12-23T01:11:09.629Z,82.50
2017-12-23T01:12:12.113Z,93.82
2017-12-23T01:13:14.608Z,82.45
2017-12-23T01:14:17.079Z,80.65
2017-12-23T01:15:19.662Z,79.82
2017-12-23T01:16:22.151Z,87.85
2017-12-23T01:17:24.637Z,88.05
2017-12-23T01:18:27.133Z,88.87
2017-12-23T01:19:29.619Z,83.50
2017-12-23T01:20:32.968Z,81.90
2017-12-23T01:21:35.516Z,80.78
2017-12-23T01:22:37.986Z,75.20
2017-12-23T01:23:40.480Z,87.85
2017-12-23T01:24:42.966Z,87.32
2017-12-23T01:25:45.465Z,81.43
2017-12-23T01:26:48.046Z,78.28
2017-12-23T01:27:50.522Z,74.00
2017-12-23T01:28:52.999Z,81.82
2017-12-23T01:29:55.498Z,84.30
2017-12-23T01:30:57.976Z,83.43
2017-12-23T01:32:00.510Z,75.12
2017-12-23T01:33:02.978Z,71.40
2017-12-23T01:34:05.632Z,74.00
2017-12-23T01:35:08.136Z,71.43
2017-12-23T01:36:10.742Z,64.53
2017-12-23T01:37:13.274Z,71.55
2017-12-23T01:38:15.806Z,73.95
2017-12-23T01:39:18.314Z,67.75
2017-12-23T01:40:20.956Z,73.57
2017-12-23T01:41:23.603Z,64.55
2017-12-23T01:42:26.128Z,77.72
2017-12-23T01:43:28.743Z,66.78
2017-12-23T01:44:31.292Z,71.57
2017-12-23T01:45:33.834Z,73.75
2017-12-23T01:46:36.311Z,76.47
2017-12-23T01:47:38.812Z,70.65
2017-12-23T01:48:41.270Z,79.68
2017-12-23T01:49:43.756Z,68.68
2017-12-23T01:50:46.330Z,71.43
2017-12-23T01:51:48.844Z,79.93
2017-12-23T01:52:51.384Z,64.03
2017-12-23T01:53:53.865Z,66.45
2017-12-23T01:54:56.371Z,73.43
2017-12-23T01:55:58.856Z,74.47
2017-12-23T01:57:01.327Z,71.70
2017-12-23T01:58:03.830Z,68.05
2017-12-23T01:59:06.306Z,67.12
2017-12-23T02:00:08.810Z,77.82
2017-12-23T02:01:11.285Z,75.15
2017-12-23T02:02:13.790Z,64.60
2017-12-23T02:03:16.358Z,80.20
2017-12-23T02:04:18.836Z,72.50
2017-12-23T02:05:21.316Z,68.25
2017-12-23T02:06:23.795Z,73.03
2017-12-23T02:07:26.280Z,66.03
2017-12-23T02:08:28.766Z,65.85
2017-12-23T02:09:31.256Z,72.50
2017-12-23T02:10:33.725Z,70.72
2017-12-23T02:11:36.248Z,56.85
2017-12-23T02:12:38.823Z,58.60
2017-12-23T02:13:41.324Z,58.03
2017-12-23T02:14:43.783Z,53.28
2017-12-23T02:15:46.257Z,57.05
2017-12-23T02:16:48.723Z,54.47
2017-12-23T02:17:51.205Z,70.30
2017-12-23T02:18:53.702Z,61.67
2017-12-23T02:19:56.181Z,55.58
2017-12-23T02:20:58.656Z,58.17
2017-12-23T02:22:01.113Z,55.08
2017-12-23T02:23:03.589Z,57.95
2017-12-23T02:24:06.100Z,54.92
2017-12-23T02:25:08.566Z,62.70
2017-12-23T02:26:11.041Z,50.75
2017-12-23T02:27:13.498Z,52.95
2017-12-23T02:28:15.975Z,58.30
2017-12-23T02:29:18.474Z,56.75
2017-12-23T02:30:20.954Z,54.47
2017-12-23T02:31:23.414Z,52.85
2017-12-23T02:32:25.898Z,43.30
2017-12-23T02:33:28.366Z,56.90
2017-12-23T02:34:30.859Z,57.05
2017-12-23T02:35:33.337Z,52.15
2017-12-23T02:36:35.819Z,64.30
2017-12-23T02:37:38.356Z,54.85
2017-12-23T02:38:40.832Z,57.13
2017-12-23T02:39:43.329Z,60.42
2017-12-23T02:40:45.803Z,74.70
2017-12-23T02:41:49.407Z,55.38
2017-12-23T02:42:51.889Z,62.05
2017-12-23T02:43:54.351Z,55.70
2017-12-23T02:44:56.877Z,64.12
2017-12-23T02:45:59.354Z,59.05
2017-12-23T02:47:01.847Z,63.17
2017-12-23T02:48:04.306Z,57.75
2017-12-23T02:49:06.783Z,54.00
2017-12-23T02:50:09.286Z,55.50
2017-12-23T02:51:11.761Z,60.58
2017-12-23T02:52:14.223Z,54.83
2017-12-23T02:53:16.708Z,61.58
2017-12-23T02:54:19.166Z,52.42
2017-12-23T02:55:21.664Z,63.03
2017-12-23T02:56:24.126Z,66.05
2017-12-23T02:57:26.617Z,63.53
2017-12-23T02:58:29.084Z,56.63
2017-12-23T02:59:31.560Z,67.50
2017-12-23T03:00:34.043Z,65.80
2017-12-23T03:01:36.517Z,64.25
2017-12-23T03:02:38.992Z,68.95
2017-12-23T03:03:41.468Z,59.20
2017-12-23T03:04:43.930Z,57.70
2017-12-23T03:05:46.406Z,66.18
2017-12-23T03:06:48.870Z,74.80
2017-12-23T03:07:51.330Z,58.00
2017-12-23T03:08:53.790Z,64.70
2017-12-23T03:09:56.245Z,58.38
2017-12-23T03:10:58.722Z,67.60
2017-12-23T03:12:01.200Z,66.32
2017-12-23T03:13:03.664Z,67.60
2017-12-23T03:14:06.143Z,61.50
2017-12-23T03:15:08.604Z,64.40
2017-12-23T03:16:11.103Z,64.70
2017-12-23T03:17:13.558Z,65.37
2017-12-23T03:18:16.030Z,71.95
2017-12-23T03:19:18.508Z,64.70
2017-12-23T03:20:20.983Z,66.45
2017-12-23T03:21:23.469Z,73.85
2017-12-23T03:22:25.930Z,73.25
2017-12-23T03:23:28.390Z,78.65
2017-12-23T03:24:30.872Z,85.12
2017-12-23T03:25:33.338Z,75.72
2017-12-23T03:26:35.836Z,70.35
2017-12-23T03:27:38.307Z,84.45
2017-12-23T03:28:40.766Z,79.03
2017-12-23T03:29:43.222Z,77.25
2017-12-23T03:30:45.683Z,75.65
2017-12-23T03:31:49.398Z,77.85
2017-12-23T03:32:51.869Z,80.28
2017-12-23T03:33:54.344Z,72.70
2017-12-23T03:34:56.823Z,75.55
2017-12-23T03:35:59.286Z,90.78
2017-12-23T03:37:01.762Z,77.47
2017-12-23T03:38:04.225Z,76.57
2017-12-23T03:39:06.684Z,85.57
2017-12-23T03:40:09.168Z,76.12
2017-12-23T03:41:11.626Z,79.30
2017-12-23T03:42:14.128Z,73.07
2017-12-23T03:43:16.590Z,74.50
2017-12-23T03:44:19.069Z,73.07
2017-12-23T03:45:21.534Z,73.87
2017-12-23T03:46:23.998Z,73.62
2017-12-23T03:47:26.491Z,71.87
2017-12-23T03:48:28.972Z,77.62
2017-12-23T03:49:31.439Z,71.75
2017-12-23T03:50:33.905Z,64.25
2017-12-23T03:51:36.379Z,60.20
2017-12-23T03:52:38.870Z,57.22
2017-12-23T03:53:41.343Z,55.28
2017-12-23T03:54:43.806Z,52.20
2017-12-23T03:55:46.300Z,56.00
2017-12-23T03:56:48.762Z,52.17
2017-12-23T03:57:52.445Z,44.97
2017-12-23T03:58:54.922Z,50.65
2017-12-23T03:59:57.386Z,46.40
2017-12-23T04:00:59.846Z,53.17
2017-12-23T04:02:02.335Z,50.70
2017-12-23T04:03:04.826Z,47.60
2017-12-23T04:04:07.286Z,47.20
2017-12-23T04:05:09.747Z,44.17
2017-12-23T04:06:12.235Z,46.50
2017-12-23T04:07:14.724Z,47.05
2017-12-23T04:08:17.208Z,43.50
2017-12-23T04:09:19.671Z,45.25
2017-12-23T04:10:22.148Z,43.78
2017-12-23T04:11:24.623Z,46.55
2017-12-23T04:12:27.091Z,49.05
2017-12-23T04:13:30.191Z,44.47
2017-12-23T04:14:32.655Z,46.55
2017-12-23T04:15:35.115Z,46.03
2017-12-23T04:16:37.588Z,47.88
2017-12-23T04:17:40.076Z,49.85
2017-12-23T04:18:42.576Z,49.08
2017-12-23T04:19:45.038Z,49.55
2017-12-23T04:20:47.494Z,47.10
2017-12-23T04:21:49.959Z,46.03
2017-12-23T04:22:52.419Z,48.28
2017-12-23T04:23:54.912Z,45.28
2017-12-23T04:24:57.367Z,50.12
2017-12-23T04:25:59.836Z,58.97
2017-12-23T04:27:02.295Z,56.58
2017-12-23T04:28:04.783Z,46.85
2017-12-23T04:29:07.280Z,49.78
2017-12-23T04:30:09.763Z,49.40
2017-12-23T04:31:12.217Z,45.92
2017-12-23T04:32:14.725Z,55.70
2017-12-23T04:33:17.181Z,51.25
2017-12-23T04:34:19.670Z,44.33
2017-12-23T04:35:22.222Z,47.33
2017-12-23T04:36:24.708Z,42.65
2017-12-23T04:37:27.182Z,51.37
2017-12-23T04:38:29.640Z,58.03
2017-12-23T04:39:32.136Z,45.50
2017-12-23T04:40:34.614Z,54.40
2017-12-23T04:41:37.082Z,51.40
2017-12-23T04:42:39.543Z,55.53
2017-12-23T04:43:42.016Z,48.58
2017-12-23T04:44:44.516Z,47.75
2017-12-23T04:45:46.978Z,48.95
2017-12-23T04:46:49.442Z,44.35
2017-12-23T04:47:51.906Z,46.78
2017-12-23T04:48:54.413Z,54.05
2017-12-23T04:49:56.894Z,46.40
2017-12-23T04:50:59.393Z,60.20
2017-12-23T04:52:01.867Z,50.50
2017-12-23T04:53:04.389Z,53.05
2017-12-23T04:54:06.850Z,48.40
2017-12-23T04:55:09.358Z,43.22
2017-12-23T04:56:11.836Z,51.90
2017-12-23T04:57:14.308Z,47.70
2017-12-23T04:58:16.777Z,44.40
2017-12-23T04:59:19.265Z,46.85
2017-12-23T05:00:21.746Z,51.58
2017-12-23T05:01:24.211Z,46.33
2017-12-23T05:02:26.688Z,49.65
2017-12-23T05:03:29.151Z,40.28
2017-12-23T05:04:31.628Z,38.00
2017-12-23T05:05:34.106Z,47.53
2017-12-23T05:06:36.564Z,43.40
2017-12-23T05:07:39.022Z,41.20
2017-12-23T05:08:41.497Z,45.85
2017-12-23T05:09:43.964Z,38.17
2017-12-23T05:10:46.456Z,40.15
2017-12-23T05:11:48.931Z,43.87
2017-12-23T05:12:51.398Z,37.90
2017-12-23T05:13:53.872Z,45.95
2017-12-23T05:14:56.337Z,54.72
2017-12-23T05:15:58.869Z,46.42
2017-12-23T05:17:01.381Z,46.60
2017-12-23T05:18:03.878Z,50.38
2017-12-23T05:19:06.356Z,44.72
2017-12-23T05:20:08.839Z,49.28
2017-12-23T05:21:11.322Z,49.55
2017-12-23T05:22:13.790Z,52.65
2017-12-23T05:23:16.249Z,47.78
2017-12-23T05:24:18.710Z,41.88
2017-12-23T05:25:21.170Z,47.08
2017-12-23T05:26:23.656Z,47.72
2017-12-23T05:27:26.132Z,47.45
2017-12-23T05:28:28.594Z,49.63
2017-12-23T05:29:31.050Z,47.65
2017-12-23T05:30:33.525Z,56.35
2017-12-23T05:31:36.020Z,47.13
2017-12-23T05:32:38.496Z,45.75
2017-12-23T05:33:40.981Z,59.65
2017-12-23T05:34:43.446Z,65.75
2017-12-23T05:35:45.920Z,54.65
2017-12-23T05:36:48.419Z,56.03
2017-12-23T05:37:50.900Z,56.53
2017-12-23T05:38:53.358Z,50.30
2017-12-23T05:39:55.831Z,61.08
2017-12-23T05:40:58.289Z,59.53
2017-12-23T05:42:00.788Z,59.65
2017-12-23T05:43:03.265Z,61.58
2017-12-23T05:44:05.727Z,58.20
2017-12-23T05:45:08.189Z,63.47
2017-12-23T05:46:10.668Z,56.33
2017-12-23T05:47:13.172Z,58.10
2017-12-23T05:48:15.657Z,57.45
2017-12-23T05:49:18.141Z,67.85
2017-12-23T05:50:20.602Z,55.45
2017-12-23T05:51:23.062Z,57.05
2017-12-23T05:52:25.546Z,63.38
2017-12-23T05:53:28.033Z,57.05
2017-12-23T05:54:30.519Z,64.55
2017-12-23T05:55:32.996Z,71.60
2017-12-23T05:56:35.458Z,64.20
2017-12-23T05:57:37.969Z,69.50
2017-12-23T05:58:40.426Z,67.97
2017-12-23T05:59:42.884Z,61.35
2017-12-23T06:00:45.364Z,63.30
2017-12-23T06:01:47.826Z,63.53
2017-12-23T06:02:50.301Z,61.40
2017-12-23T06:03:52.766Z,63.75
2017-12-23T06:04:55.223Z,62.75
2017-12-23T06:05:57.704Z,64.40
2017-12-23T06:07:00.193Z,63.13
2017-12-23T06:08:02.692Z,64.82
2017-12-23T06:09:05.150Z,65.40
2017-12-23T06:10:07.625Z,58.85
2017-12-23T06:11:10.093Z,65.95
2017-12-23T06:12:12.557Z,71.30
2017-12-23T06:13:15.052Z,61.28
2017-12-23T06:14:17.534Z,65.15
2017-12-23T06:15:20.009Z,61.88
2017-12-23T06:16:22.468Z,59.38
2017-12-23T06:17:24.926Z,68.95
2017-12-23T06:18:27.411Z,70.78
2017-12-23T06:19:29.892Z,69.80
2017-12-23T06:20:32.372Z,67.18
2017-12-23T06:21:34.830Z,73.12
2017-12-23T06:22:37.320Z,67.97
2017-12-23T06:23:39.814Z,63.90
2017-12-23T06:24:42.274Z,77.30
2017-12-23T06:25:44.738Z,71.10
2017-12-23T06:26:47.209Z,76.25
2017-12-23T06:27:49.691Z,71.40
2017-12-23T06:28:52.188Z,82.78
2017-12-23T06:29:54.701Z,70.47
2017-12-23T06:30:57.162Z,75.53
2017-12-23T06:31:59.645Z,83.60
2017-12-23T06:33:02.120Z,61.55
2017-12-23T06:34:04.608Z,80.40
2017-12-23T06:35:07.074Z,78.10
2017-12-23T06:36:09.588Z,71.37
2017-12-23T06:37:12.049Z,82.75
2017-12-23T06:38:14.895Z,78.72
2017-12-23T06:39:17.393Z,80.60
2017-12-23T06:40:19.860Z,70.82
2017-12-23T06:41:22.356Z,85.90
2017-12-23T06:42:24.844Z,81.00
2017-12-23T06:43:27.421Z,82.47
2017-12-23T06:44:29.916Z,71.93
2017-12-23T06:45:32.412Z,85.22
2017-12-23T06:46:34.874Z,82.07
2017-12-23T06:47:37.335Z,91.12
2017-12-23T06:48:39.818Z,90.03
2017-12-23T06:49:42.310Z,87.30
2017-12-23T06:50:44.770Z,85.80
2017-12-23T06:51:47.244Z,75.22
2017-12-23T06:52:49.716Z,92.05
2017-12-23T06:53:52.174Z,90.45
2017-12-23T06:54:54.687Z,89.85
2017-12-23T06:55:57.166Z,91.57
2017-12-23T06:56:59.664Z,102.62
2017-12-23T06:58:02.156Z,87.75
2017-12-23T06:59:04.618Z,84.80
2017-12-23T07:00:07.124Z,85.15
2017-12-23T07:01:09.593Z,88.97
2017-12-23T07:02:12.395Z,105.12
2017-12-23T07:03:14.880Z,89.28
2017-12-23T07:04:17.356Z,96.65
2017-12-23T07:05:19.849Z,87.85
2017-12-23T07:06:22.371Z,99.72
2017-12-23T07:07:24.828Z,99.65
2017-12-23T07:08:27.294Z,91.12
2017-12-23T07:09:29.784Z,95.25
2017-12-23T07:10:32.284Z,91.90
2017-12-23T07:11:34.761Z,82.22
2017-12-23T07:12:37.214Z,73.03
2017-12-23T07:13:39.726Z,86.05
2017-12-23T07:14:42.196Z,83.90
2017-12-23T07:15:44.697Z,71.37
2017-12-23T07:16:47.160Z,88.78
2017-12-23T07:17:49.635Z,72.72
2017-12-23T07:18:52.112Z,76.57
2017-12-23T07:19:54.590Z,70.53
2017-12-23T07:20:57.082Z,74.18
2017-12-23T07:21:59.556Z,83.75
2017-12-23T07:23:02.020Z,72.03
2017-12-23T07:24:04.505Z,63.50
2017-12-23T07:25:06.964Z,74.03
2017-12-23T07:26:09.473Z,62.17
2017-12-23T07:27:11.930Z,53.83
2017-12-23T07:28:14.415Z,61.17
2017-12-23T07:29:16.921Z,62.40
2017-12-23T07:30:19.486Z,63.92
2017-12-23T07:31:21.981Z,55.40
2017-12-23T07:32:24.506Z,50.92
2017-12-23T07:33:26.970Z,55.72
2017-12-23T07:34:29.434Z,51.67
2017-12-23T07:35:31.911Z,57.70
2017-12-23T07:36:34.420Z,51.95
2017-12-23T07:37:36.912Z,48.55
2017-12-23T07:38:39.424Z,52.50
2017-12-23T07:39:41.908Z,54.08
2017-12-23T07:40:44.392Z,51.28
2017-12-23T07:41:46.889Z,49.80
2017-12-23T07:42:49.358Z,44.15
2017-12-23T07:43:51.840Z,49.88
2017-12-23T07:44:54.348Z,53.45
2017-12-23T07:45:56.816Z,49.72
2017-12-23T07:46:59.313Z,48.97
2017-12-23T07:48:01.779Z,48.35
2017-12-23T07:49:04.261Z,48.35
2017-12-23T07:50:06.730Z,56.00
2017-12-23T07:51:09.214Z,48.45
2017-12-23T07:52:11.695Z,49.25
2017-12-23T07:53:14.169Z,44.58
2017-12-23T07:54:16.652Z,51.35
2017-12-23T07:55:19.107Z,45.40
2017-12-23T07:56:21.568Z,45.17
2017-12-23T07:57:24.420Z,46.05
2017-12-23T07:58:26.925Z,43.78
2017-12-23T07:59:29.437Z,47.97
2017-12-23T08:00:31.912Z,46.55
2017-12-23T08:01:34.384Z,44.45
2017-12-23T08:02:36.872Z,41.53
2017-12-23T08:03:39.354Z,46.63
2017-12-23T08:04:41.828Z,49.83
2017-12-23T08:05:44.305Z,48.80
2017-12-23T08:06:46.766Z,45.40
2017-12-23T08:07:49.250Z,45.70
2017-12-23T08:08:51.725Z,45.55
2017-12-23T08:09:54.194Z,48.03
2017-12-23T08:10:56.668Z,46.00
2017-12-23T08:11:59.188Z,48.28
2017-12-23T08:13:01.666Z,42.97
2017-12-23T08:14:04.139Z,43.58
2017-12-23T08:15:06.620Z,48.15
2017-12-23T08:16:09.108Z,39.80
2017-12-23T08:17:11.580Z,53.15
2017-12-23T08:18:14.077Z,49.80
2017-12-23T08:19:16.555Z,52.90
2017-12-23T08:20:19.014Z,45.17
2017-12-23T08:21:21.479Z,51.45
2017-12-23T08:22:23.948Z,47.67
2017-12-23T08:23:26.439Z,54.88
2017-12-23T08:24:28.916Z,50.60
2017-12-23T08:25:31.403Z,55.65
2017-12-23T08:26:33.890Z,56.10
2017-12-23T08:27:36.346Z,50.45
2017-12-23T08:28:38.826Z,51.78
2017-12-23T08:29:41.295Z,55.08
2017-12-23T08:30:43.769Z,48.55
2017-12-23T08:31:46.226Z,59.53
2017-12-23T08:32:48.705Z,54.13
2017-12-23T08:33:51.182Z,48.92
2017-12-23T08:34:54.003Z,55.15
2017-12-23T08:35:56.569Z,51.70
2017-12-23T08:36:59.033Z,60.00
2017-12-23T08:38:01.513Z,57.15
2017-12-23T08:39:04.013Z,72.10
2017-12-23T08:40:06.489Z,70.07
2017-12-23T08:41:08.969Z,64.20
2017-12-23T08:42:11.440Z,64.00
2017-12-23T08:43:13.910Z,67.12
2017-12-23T08:44:16.390Z,59.53
2017-12-23T08:45:18.866Z,62.62
2017-12-23T08:46:21.336Z,63.95
2017-12-23T08:47:23.794Z,60.75
2017-12-23T08:48:26.249Z,63.05
2017-12-23T08:49:28.730Z,62.97
2017-12-23T08:50:31.199Z,60.65
2017-12-23T08:51:33.671Z,59.83
2017-12-23T08:52:36.154Z,66.22
2017-12-23T08:53:38.614Z,65.85
2017-12-23T08:54:41.145Z,64.07
2017-12-23T08:55:43.582Z,57.80
2017-12-23T08:56:46.061Z,62.90
2017-12-23T08:57:48.527Z,58.33
2017-12-23T08:58:50.983Z,54.50
2017-12-23T08:59:53.482Z,66.70
2017-12-23T09:00:55.965Z,69.85
2017-12-23T09:01:58.437Z,62.83
2017-12-23T09:03:00.912Z,67.93
2017-12-23T09:04:03.366Z,72.87
2017-12-23T09:05:05.861Z,60.63
2017-12-23T09:06:08.346Z,68.78
2017-12-23T09:07:10.874Z,63.45
2017-12-23T09:08:13.313Z,67.93
2017-12-23T09:09:15.825Z,69.07
2017-12-23T09:10:18.352Z,71.10
2017-12-23T09:11:20.824Z,62.72
2017-12-23T09:12:23.296Z,66.07
2017-12-23T09:13:25.776Z,64.65
2017-12-23T09:14:28.252Z,73.30
2017-12-23T09:15:30.729Z,64.62
2017-12-23T09:16:33.187Z,71.85
2017-12-23T09:17:35.668Z,69.68
2017-12-23T09:18:38.141Z,70.53
2017-12-23T09:19:40.595Z,62.25
2017-12-23T09:20:43.079Z,70.53
2017-12-23T09:21:45.552Z,73.12
2017-12-23T09:22:48.044Z,65.62
2017-12-23T09:23:50.539Z,67.50
2017-12-23T09:24:52.995Z,71.05
2017-12-23T09:25:55.482Z,61.33
2017-12-23T09:26:57.942Z,66.50
2017-12-23T09:28:00.415Z,57.67
2017-12-23T09:29:02.892Z,55.25
2017-12-23T09:30:05.369Z,65.60
2017-12-23T09:31:07.846Z,57.35
2017-12-23T09:32:10.321Z,53.03
2017-12-23T09:33:12.784Z,59.15
2017-12-23T09:34:15.257Z,59.95
2017-12-23T09:35:17.728Z,58.35
2017-12-23T09:36:20.220Z,57.92
2017-12-23T09:37:22.693Z,58.63
2017-12-23T09:38:25.153Z,50.65
2017-12-23T09:39:27.633Z,61.13
2017-12-23T09:40:30.271Z,54.47
2017-12-23T09:41:32.806Z,55.67
2017-12-23T09:42:35.262Z,51.58
2017-12-23T09:43:37.740Z,51.00
2017-12-23T09:44:40.194Z,51.05
2017-12-23T09:45:42.654Z,48.58
2017-12-23T09:46:45.164Z,55.05
2017-12-23T09:47:47.627Z,50.97
2017-12-23T09:48:50.091Z,47.90
2017-12-23T09:49:52.562Z,42.22
2017-12-23T09:50:55.030Z,47.65
2017-12-23T09:51:57.536Z,40.30
2017-12-23T09:53:00.021Z,44.72
2017-12-23T09:54:02.498Z,43.70
2017-12-23T09:55:04.991Z,39.88
2017-12-23T09:56:07.461Z,31.48
2017-12-23T09:57:09.964Z,44.42
2017-12-23T09:58:12.426Z,41.60
2017-12-23T09:59:14.899Z,41.75
2017-12-23T10:00:17.369Z,40.30
2017-12-23T10:01:19.829Z,44.78
2017-12-23T10:02:22.306Z,32.97
2017-12-23T10:03:24.778Z,39.13
2017-12-23T10:04:27.238Z,34.55
2017-12-23T10:05:29.720Z,38.40
2017-12-23T10:06:32.186Z,32.40
2017-12-23T10:07:34.708Z,32.63
2017-12-23T10:08:37.192Z,33.40
2017-12-23T10:09:39.675Z,33.85
2017-12-23T10:10:42.146Z,31.75
2017-12-23T10:11:44.622Z,42.15
2017-12-23T10:12:47.102Z,37.88
2017-12-23T10:13:49.642Z,30.90
2017-12-23T10:14:52.120Z,36.88
2017-12-23T10:15:54.578Z,39.75
2017-12-23T10:16:57.042Z,35.08
2017-12-23T10:17:59.549Z,38.40
2017-12-23T10:19:02.022Z,33.97
2017-12-23T10:20:04.496Z,39.17
2017-12-23T10:21:06.992Z,34.47
2017-12-23T10:22:09.526Z,36.80
2017-12-23T10:23:12.022Z,35.22
2017-12-23T10:24:14.492Z,30.95
2017-12-23T10:25:16.969Z,53.20
2017-12-23T10:26:19.446Z,29.40
2017-12-23T10:27:21.928Z,28.05
2017-12-23T10:28:24.424Z,35.05
2017-12-23T10:29:26.904Z,35.88
2017-12-23T10:30:29.381Z,25.52
2017-12-23T10:31:31.863Z,31.17
2017-12-23T10:32:34.343Z,22.58
2017-12-23T10:33:36.837Z,23.20
2017-12-23T10:34:39.312Z,26.30
2017-12-23T10:35:41.770Z,27.80
2017-12-23T10:36:44.248Z,25.33
2017-12-23T10:37:46.715Z,24.87
2017-12-23T10:38:49.234Z,24.95
2017-12-23T10:39:51.722Z,25.60
2017-12-23T10:40:54.204Z,25.50
2017-12-23T10:41:56.739Z,26.40
2017-12-23T10:42:59.236Z,22.80
2017-12-23T10:44:01.765Z,25.77
2017-12-23T10:45:04.248Z,28.80
2017-12-23T10:46:06.801Z,18.67
2017-12-23T10:47:09.268Z,25.55
2017-12-23T10:48:12.230Z,24.70
2017-12-23T10:49:14.750Z,20.45
2017-12-23T10:50:17.226Z,20.33
2017-12-23T10:51:19.682Z,19.85
2017-12-23T10:52:22.160Z,22.08
2017-12-23T10:53:24.618Z,22.05
2017-12-23T10:54:27.156Z,24.42
2017-12-23T10:55:29.618Z,17.08
2017-12-23T10:56:32.078Z,16.87
2017-12-23T10:57:34.551Z,21.05
2017-12-23T10:58:37.022Z,25.52
2017-12-23T10:59:39.516Z,18.02
2017-12-23T11:00:41.982Z,16.87
2017-12-23T11:01:44.442Z,20.33
2017-12-23T11:02:46.921Z,20.70
2017-12-23T11:03:49.383Z,20.12
2017-12-23T11:04:51.876Z,21.83
2017-12-23T11:05:54.334Z,17.70
2017-12-23T11:06:56.809Z,19.33
2017-12-23T11:07:59.276Z,15.40
2017-12-23T11:09:01.750Z,17.05
2017-12-23T11:10:04.236Z,16.45
2017-12-23T11:11:06.694Z,20.20
2017-12-23T11:12:09.184Z,18.98
2017-12-23T11:13:11.638Z,16.50
2017-12-23T11:14:14.104Z,20.25
2017-12-23T11:15:16.607Z,23.95
2017-12-23T11:16:19.064Z,17.95
2017-12-23T11:17:21.521Z,19.20
2017-12-23T11:18:23.974Z,15.88
2017-12-23T11:19:26.427Z,14.27
2017-12-23T11:20:28.910Z,16.55
2017-12-23T11:21:31.394Z,16.45
2017-12-23T11:22:33.859Z,18.52
2017-12-23T11:23:36.334Z,13.48
2017-12-23T11:24:38.958Z,14.60
2017-12-23T11:25:41.434Z,16.15
2017-12-23T11:26:43.905Z,12.70
2017-12-23T11:27:46.372Z,10.10
2017-12-23T11:28:48.824Z,12.37
2017-12-23T11:29:51.301Z,10.63
2017-12-23T11:30:53.805Z,10.80
2017-12-23T11:31:56.275Z,13.70
2017-12-23T11:32:58.740Z,9.07
2017-12-23T11:34:01.206Z,7.00
2017-12-23T11:35:03.668Z,8.57
2017-12-23T11:36:06.142Z,6.10
2017-12-23T11:37:08.608Z,5.70
2017-12-23T11:38:11.062Z,7.47
2017-12-23T11:39:13.515Z,7.93
2017-12-23T11:40:15.971Z,5.95
2017-12-23T11:41:18.461Z,7.22
2017-12-23T11:42:20.928Z,6.18
2017-12-23T11:43:23.380Z,6.57
2017-12-23T11:44:25.849Z,5.90
2017-12-23T11:45:28.303Z,8.13
2017-12-23T11:46:30.795Z,10.75
2017-12-23T11:47:33.255Z,6.15
2017-12-23T11:48:35.774Z,11.63
2017-12-23T11:49:38.231Z,8.27
2017-12-23T11:50:40.715Z,8.02
2017-12-23T11:51:43.186Z,8.27
2017-12-23T11:52:45.652Z,7.43
2017-12-23T11:53:48.121Z,8.60
2017-12-23T11:54:50.570Z,7.70
2017-12-23T11:55:53.032Z,7.68
2017-12-23T11:56:55.525Z,6.40
2017-12-23T11:57:58.001Z,11.02
2017-12-23T11:59:00.489Z,12.00
2017-12-23T12:00:02.943Z,8.73
2017-12-23T12:01:05.412Z,6.80
2017-12-23T12:02:07.890Z,10.60
2017-12-23T12:03:10.364Z,5.80
2017-12-23T12:04:12.814Z,4.07
2017-12-23T12:05:15.276Z,5.82
2017-12-23T12:06:17.741Z,4.50
2017-12-23T12:07:20.229Z,3.97
2017-12-23T12:08:22.693Z,3.37
2017-12-23T12:09:25.157Z,2.95
2017-12-23T12:10:27.606Z,3.28
2017-12-23T12:11:30.059Z,3.78
2017-12-23T12:12:32.535Z,2.90
2017-12-23T12:13:35.001Z,2.55
2017-12-23T12:14:37.451Z,3.15
2017-12-23T12:15:39.930Z,2.35
2017-12-23T12:16:42.386Z,4.40
2017-12-23T12:17:44.874Z,3.17
2017-12-23T12:18:47.324Z,2.55
2017-12-23T12:19:49.787Z,3.85
2017-12-23T12:20:52.261Z,2.30
2017-12-23T12:21:54.731Z,2.62
2017-12-23T12:22:57.217Z,2.50
2017-12-23T12:23:59.675Z,2.20
2017-12-23T12:25:02.144Z,1.95
2017-12-23T12:26:04.625Z,2.40
2017-12-23T12:27:07.082Z,2.20
2017-12-23T12:28:09.568Z,3.05
2017-12-23T12:29:12.041Z,3.17
2017-12-23T12:30:14.505Z,2.10
2017-12-23T12:31:16.967Z,2.10
2017-12-23T12:32:19.442Z,1.87
2017-12-23T12:33:21.909Z,2.20
2017-12-23T12:34:24.385Z,2.20
2017-12-23T12:35:26.860Z,2.50
2017-12-23T12:36:29.348Z,2.70
2017-12-23T12:37:31.817Z,2.45
2017-12-23T12:38:34.314Z,2.85
2017-12-23T12:39:36.792Z,2.42
2017-12-23T12:40:39.256Z,3.50
2017-12-23T12:41:41.829Z,2.47
2017-12-23T12:42:44.390Z,2.00
2017-12-23T12:43:46.941Z,2.58
2017-12-23T12:44:49.418Z,3.37
2017-12-23T12:45:51.883Z,2.20
2017-12-23T12:46:54.357Z,2.30
2017-12-23T12:47:56.803Z,2.00
2017-12-23T12:48:59.284Z,2.78
2017-12-23T12:50:01.732Z,2.95
2017-12-23T12:51:04.209Z,1.95
2017-12-23T12:52:06.662Z,5.97
2017-12-23T12:53:09.130Z,1.55
2017-12-23T12:54:11.617Z,1.70
2017-12-23T12:55:14.082Z,1.35
2017-12-23T12:56:16.653Z,1.77
2017-12-23T12:57:19.106Z,2.42
2017-12-23T12:58:21.585Z,2.65
2017-12-23T12:59:24.058Z,1.95
2017-12-23T13:00:26.544Z,2.00
2017-12-23T13:01:28.994Z,2.30
2017-12-23T13:02:31.446Z,2.45
2017-12-23T13:03:33.899Z,2.40
2017-12-23T13:04:36.370Z,2.05
2017-12-23T13:05:38.849Z,2.10
2017-12-23T13:06:41.310Z,1.90
2017-12-23T13:07:43.824Z,3.30
2017-12-23T13:08:46.292Z,2.10
2017-12-23T13:09:48.762Z,3.00
2017-12-23T13:10:51.233Z,3.12
2017-12-23T13:11:53.696Z,3.08
2017-12-23T13:12:56.160Z,3.75
2017-12-23T13:13:58.628Z,4.40
2017-12-23T13:15:01.102Z,4.07
2017-12-23T13:16:03.569Z,4.62
2017-12-23T13:17:06.044Z,4.70
2017-12-23T13:18:08.571Z,4.15
2017-12-23T13:19:11.110Z,4.55
2017-12-23T13:20:13.578Z,3.95
2017-12-23T13:21:16.042Z,5.60
2017-12-23T13:22:18.490Z,4.20
2017-12-23T13:23:20.961Z,4.50
2017-12-23T13:24:23.428Z,6.35
2017-12-23T13:25:25.906Z,5.68
2017-12-23T13:26:28.373Z,5.18
2017-12-23T13:27:30.840Z,5.80
2017-12-23T13:28:33.308Z,5.93